createdAt,value
2024-03-12T01:25:22.433Z,0.03
2024-03-12T01:37:24.721Z,0.04
2024-03-12T01:48:50.234Z,0.02
2024-03-12T02:42:35.757Z,0.03
2024-03-12T02:47:25.199Z,0.04
2024-03-12T02:59:02.217Z,0.05
2024-03-12T03:11:01.131Z,0.06
2024-03-12T03:13:20.243Z,0.07
2024-03-12T03:17:18.058Z,0.06
2024-03-12T03:19:56.444Z,0.13
2024-03-12T03:22:21.438Z,0.06
2024-03-12T03:31:46.810Z,0.05
2024-03-12T03:45:09.630Z,0.06
2024-03-12T03:59:24.667Z,0.07
2024-03-12T04:23:07.477Z,0.06
2024-03-12T04:38:44.467Z,0.07
2024-03-12T04:44:01.248Z,0.06
2024-03-12T04:46:19.580Z,0.07
2024-03-12T04:52:53.158Z,0.06
2024-03-12T04:57:28.223Z,0.07
2024-03-12T04:59:25.644Z,0.08
2024-03-12T05:02:09.130Z,0.09
2024-03-12T05:06:55.848Z,0.1
2024-03-12T05:08:59.212Z,0.11
2024-03-12T05:11:48.407Z,0.14
2024-03-12T05:16:46.681Z,0.31
2024-03-12T05:18:56.003Z,0.43
2024-03-12T05:20:51.782Z,0.55
2024-03-12T05:23:33.399Z,0.8
2024-03-12T05:26:01.838Z,1.15
2024-03-12T05:28:16.887Z,1.53
2024-03-12T05:30:18.442Z,1.8
2024-03-12T05:33:06.089Z,2.93
2024-03-12T05:35:40.527Z,4.37
2024-03-12T05:38:00.972Z,6.51
2024-03-12T05:40:08.374Z,9.46
2024-03-12T05:42:01.890Z,15.12
2024-03-12T05:44:41.884Z,16.53
2024-03-12T05:47:08.423Z,16.57
2024-03-12T05:49:21.901Z,15.09
2024-03-12T05:51:21.894Z,18.4
2024-03-12T05:54:07.694Z,28.38
2024-03-12T05:56:40.306Z,29.52
2024-03-12T05:58:59.464Z,30.9
2024-03-12T06:01:05.326Z,39.54
2024-03-12T06:02:57.784Z,47.48
2024-03-12T06:05:36.118Z,61.22
2024-03-12T06:07:43.055Z,64
2024-03-12T06:09:36.589Z,66.02
2024-03-12T06:12:15.873Z,77.36
2024-03-12T06:14:42.003Z,94.72
2024-03-12T06:16:54.709Z,122.72
2024-03-12T06:18:53.946Z,129.56
2024-03-12T06:21:39.305Z,176.4
2024-03-12T06:24:11.128Z,227.6
2024-03-12T06:26:29.575Z,267.8
2024-03-12T06:28:35.000Z,300.1
2024-03-12T06:30:26.222Z,213.6
2024-03-12T06:33:03.787Z,137.72
2024-03-12T06:35:27.991Z,159.04
2024-03-12T06:37:38.985Z,244.7
2024-03-12T06:39:36.635Z,296
2024-03-12T06:42:19.990Z,219.7
2024-03-12T06:44:50.684Z,238.3
2024-03-12T06:47:07.268Z,286.8
2024-03-12T06:49:10.914Z,375.6
2024-03-12T06:52:00.177Z,461.6
2024-03-12T06:54:36.324Z,540.4
2024-03-12T06:56:58.747Z,694
2024-03-12T06:59:07.967Z,861.1
2024-03-12T07:01:03.993Z,943.6
2024-03-12T07:03:46.587Z,901.7
2024-03-12T07:06:14.111Z,910.4
2024-03-12T07:08:29.351Z,643.2
2024-03-12T07:10:31.178Z,594.4
2024-03-12T07:13:18.740Z,743.6
2024-03-12T07:15:53.126Z,640.9
2024-03-12T07:18:13.999Z,676.8
2024-03-12T07:20:20.963Z,640.8
2024-03-12T07:22:15.334Z,721.2
2024-03-12T07:24:55.468Z,824.6
2024-03-12T07:27:22.152Z,1023.6
2024-03-12T07:29:35.516Z,1314.5
2024-03-12T07:31:35.619Z,1614
2024-03-12T07:34:21.646Z,1813
2024-03-12T07:36:54.046Z,1861
2024-03-12T07:39:13.393Z,1918
2024-03-12T07:41:19.349Z,1916
2024-03-12T07:43:11.939Z,2286
2024-03-12T07:45:50.460Z,2120
2024-03-12T07:48:15.613Z,2419
2024-03-12T07:50:27.301Z,2399
2024-03-12T07:52:25.849Z,2199
2024-03-12T07:55:10.125Z,2891
2024-03-12T07:57:41.048Z,3040
2024-03-12T07:59:58.433Z,2856
2024-03-12T08:02:02.632Z,2271
2024-03-12T08:03:53.525Z,1712
2024-03-12T08:06:30.215Z,2143
2024-03-12T08:08:53.695Z,2144
2024-03-12T08:11:03.012Z,2500
2024-03-12T08:12:59.696Z,2255
2024-03-12T08:15:42.286Z,2461
2024-03-12T08:18:17.055Z,2015
2024-03-12T08:20:27.344Z,1747
2024-03-12T08:22:29.959Z,1647
2024-03-12T08:25:20.457Z,2586
2024-03-12T08:27:53.324Z,2018
2024-03-12T08:30:15.136Z,1630.7
2024-03-12T08:32:23.273Z,1195.8
2024-03-12T08:34:18.275Z,1364.4
2024-03-12T08:36:59.060Z,1744
2024-03-12T08:39:27.287Z,1792
2024-03-12T08:41:40.776Z,1528.3
2024-03-12T08:43:41.541Z,1884
2024-03-12T08:46:28.328Z,1816
2024-03-12T08:49:01.735Z,1882
2024-03-12T08:51:21.561Z,1854
2024-03-12T08:53:28.097Z,2059
2024-03-12T08:55:21.573Z,2288
2024-03-12T08:58:00.041Z,2035
2024-03-12T09:00:25.688Z,1762
2024-03-12T09:02:38.206Z,1625.6
2024-03-12T09:04:37.332Z,1349.7
2024-03-12T09:07:22.192Z,1289.9
2024-03-12T09:09:53.906Z,1383
2024-03-12T09:12:12.199Z,1667
2024-03-12T09:16:08.900Z,2354
2024-03-12T09:18:46.398Z,2492
2024-03-12T09:21:10.320Z,2473
2024-03-12T09:23:20.893Z,2461
2024-03-12T09:25:19.515Z,2380
2024-03-12T09:28:01.651Z,2506
2024-03-12T09:30:31.503Z,2374
2024-03-12T09:32:48.098Z,2144
2024-03-12T09:34:51.408Z,1969
2024-03-12T09:37:40.444Z,1887
2024-03-12T09:40:16.279Z,2192
2024-03-12T09:42:38.631Z,2480
2024-03-12T09:44:47.643Z,2522
2024-03-12T09:46:42.904Z,2656
2024-03-12T09:49:24.522Z,2610
2024-03-12T09:51:52.732Z,2743
2024-03-12T09:54:07.560Z,2746
2024-03-12T09:56:09.184Z,2784
2024-03-12T09:58:56.588Z,3157
2024-03-12T10:01:30.585Z,2630
2024-03-12T10:03:51.311Z,2001
2024-03-12T10:05:58.697Z,1319.6
2024-03-12T10:07:52.737Z,966
2024-03-12T10:10:32.679Z,861.7
2024-03-12T10:12:59.228Z,878.7
2024-03-12T10:15:12.444Z,845.1
2024-03-12T10:17:12.452Z,835.8
2024-03-12T10:19:58.105Z,938.2
2024-03-12T10:22:30.503Z,776.6
2024-03-12T10:24:49.487Z,1116.4
2024-03-12T10:26:55.306Z,1143.6
2024-03-12T10:28:47.847Z,1178.8
2024-03-12T10:31:25.917Z,1304.6
2024-03-12T10:33:51.201Z,1180.8
2024-03-12T10:36:01.832Z,775
2024-03-12T10:37:59.915Z,668.1
2024-03-12T10:40:44.009Z,698.8
2024-03-12T10:43:14.774Z,733.1
2024-03-12T10:45:32.501Z,1062.7
2024-03-12T10:47:36.301Z,1454
2024-03-12T10:49:27.835Z,1695
2024-03-12T10:52:03.640Z,1693
2024-03-12T10:54:26.708Z,1617.2
2024-03-12T10:56:36.664Z,1978
2024-03-12T10:58:33.291Z,2622
2024-03-12T11:01:15.643Z,3540
2024-03-12T11:03:44.631Z,4147
2024-03-12T11:06:00.293Z,3892
2024-03-12T11:08:04.001Z,4203
2024-03-12T11:10:50.863Z,4235
2024-03-12T11:13:25.782Z,3761
2024-03-12T11:15:47.252Z,3074
2024-03-12T11:17:55.476Z,3411
2024-03-12T11:19:50.256Z,4070
2024-03-12T11:22:30.950Z,3806
2024-03-12T11:24:57.868Z,3385
2024-03-12T11:27:11.634Z,3051
2024-03-12T11:29:12.353Z,2982
2024-03-12T11:31:58.595Z,3557
2024-03-12T11:34:31.908Z,3589
2024-03-12T11:36:51.730Z,2376
2024-03-12T11:38:58.169Z,2163
2024-03-12T11:40:51.364Z,2231
2024-03-12T11:43:30.347Z,1801
2024-03-12T11:45:56.014Z,1504
2024-03-12T11:48:08.150Z,1785
2024-03-12T11:50:07.142Z,2327
2024-03-12T11:52:51.987Z,2604
2024-03-12T11:55:23.370Z,3809
2024-03-12T11:57:41.646Z,4174
2024-03-12T11:59:46.507Z,3544
2024-03-12T12:01:38.068Z,3226
2024-03-12T12:04:15.409Z,3146
2024-03-12T12:06:39.383Z,3124
2024-03-12T12:08:53.254Z,3545
2024-03-12T12:10:47.344Z,4276
2024-03-12T12:13:29.895Z,4410
2024-03-12T12:15:59.657Z,4294
2024-03-12T12:18:16.071Z,3813
2024-03-12T12:20:19.240Z,3787
2024-03-12T12:23:08.138Z,3001
2024-03-12T12:25:43.672Z,2487
2024-03-12T12:28:06.001Z,2273
2024-03-12T12:30:14.956Z,2216
2024-03-12T12:32:10.729Z,2305
2024-03-12T12:34:52.168Z,2250
2024-03-12T12:37:20.469Z,2138
2024-03-12T12:39:40.540Z,2599
2024-03-12T12:41:36.736Z,2644
2024-03-12T12:46:57.844Z,1498.2
2024-03-12T12:49:18.825Z,1596.1
2024-03-12T12:51:25.762Z,2272
2024-03-12T12:53:19.830Z,2432
2024-03-12T12:55:59.521Z,2287
2024-03-12T12:58:26.148Z,1589.1
2024-03-12T13:00:40.261Z,1334.4
2024-03-12T13:02:38.317Z,1649
2024-03-12T13:05:23.924Z,1501.4
2024-03-12T13:07:56.272Z,1415.6
2024-03-12T13:10:15.108Z,2138
2024-03-12T13:12:20.580Z,2457
2024-03-12T13:16:51.043Z,1694
2024-03-12T13:19:15.773Z,2085
2024-03-12T13:21:27.233Z,2064
2024-03-12T13:23:25.383Z,2435
2024-03-12T13:26:09.209Z,2778
2024-03-12T13:28:39.919Z,2739
2024-03-12T13:30:57.190Z,2588
2024-03-12T13:33:01.033Z,2528
2024-03-12T13:34:51.806Z,2400
2024-03-12T13:37:28.299Z,1488.6
2024-03-12T13:39:51.366Z,651.8
2024-03-12T13:42:00.951Z,669.1
2024-03-12T13:43:57.385Z,780.4
2024-03-12T13:46:42.110Z,1079.6
2024-03-12T13:49:08.481Z,1229.7
2024-03-12T13:51:23.471Z,1426.5
2024-03-12T13:53:25.797Z,1638
2024-03-12T13:56:13.755Z,1942
2024-03-12T13:58:49.742Z,1679
2024-03-12T14:01:10.018Z,1495.6
2024-03-12T14:03:17.983Z,1621.7
2024-03-12T14:05:12.845Z,1256.6
2024-03-12T14:07:53.471Z,1001.6
2024-03-12T14:10:20.845Z,1082.5
2024-03-12T14:12:34.594Z,1212.4
2024-03-12T14:14:35.216Z,1489.9
2024-03-12T14:17:21.604Z,1966
2024-03-12T14:19:54.693Z,2177
2024-03-12T14:22:14.550Z,1816
2024-03-12T14:24:21.034Z,1534
2024-03-12T14:26:14.144Z,1516.8
2024-03-12T14:28:52.940Z,1456.6
2024-03-12T14:31:18.619Z,1418.2
2024-03-12T14:33:30.739Z,1522.5
2024-03-12T14:35:29.728Z,1719
2024-03-12T14:38:14.507Z,1875
2024-03-12T14:40:45.233Z,1850
2024-03-12T14:43:03.240Z,1891
2024-03-12T14:45:08.010Z,1972
2024-03-12T14:46:59.401Z,2074
2024-03-12T14:49:38.245Z,2145
2024-03-12T14:52:00.411Z,2118
2024-03-12T14:54:10.996Z,2132
2024-03-12T14:56:08.231Z,2095
2024-03-12T14:58:51.447Z,1947
2024-03-12T15:01:21.352Z,1891
2024-03-12T15:03:37.592Z,1850
2024-03-12T15:05:40.884Z,1754
2024-03-12T15:08:29.765Z,1634.5
2024-03-12T15:13:27.396Z,1444.4
2024-03-12T15:15:36.421Z,1432.3
2024-03-12T15:17:31.918Z,1478.4
2024-03-12T15:20:13.178Z,2090
2024-03-12T15:22:41.415Z,2095
2024-03-12T15:24:56.232Z,2147
2024-03-12T15:26:57.568Z,2301
2024-03-12T15:29:44.301Z,2247
2024-03-12T15:32:18.159Z,2329
2024-03-12T15:34:38.718Z,2126
2024-03-12T15:36:45.910Z,2057
2024-03-12T15:38:39.838Z,1928
2024-03-12T15:43:45.681Z,1370.2
2024-03-12T15:45:58.707Z,1362.5
2024-03-12T15:47:58.447Z,1318.4
2024-03-12T15:50:43.847Z,1109.1
2024-03-12T15:53:15.987Z,937.2
2024-03-12T15:55:34.948Z,748.4
2024-03-12T15:57:40.528Z,686.4
2024-03-12T15:59:33.131Z,671.6
2024-03-12T16:02:10.835Z,603.6
2024-03-12T16:04:17.390Z,553.7
2024-03-12T16:06:10.641Z,535.6
2024-03-12T16:08:49.643Z,508.4
2024-03-12T16:13:27.923Z,484.3
2024-03-12T16:15:26.865Z,488.8
2024-03-12T16:18:11.296Z,500
2024-03-12T16:20:42.794Z,501.7
2024-03-12T16:23:01.030Z,504.9
2024-03-12T16:25:06.128Z,512.3
2024-03-12T16:26:57.767Z,519.8
2024-03-12T16:29:35.098Z,528.6
2024-03-12T16:31:59.123Z,516.3
2024-03-12T16:34:11.246Z,470.5
2024-03-12T16:36:07.407Z,462.4
2024-03-12T16:38:50.559Z,471.5
2024-03-12T16:43:37.088Z,459.5
2024-03-12T16:45:40.357Z,443.2
2024-03-12T16:48:31.007Z,419.2
2024-03-12T16:51:05.251Z,401.6
2024-03-12T16:53:27.652Z,388.4
2024-03-12T16:55:36.712Z,376
2024-03-12T16:57:32.577Z,348.6
2024-03-12T17:00:14.210Z,304.8
2024-03-12T17:02:42.378Z,264.7
2024-03-12T17:04:57.492Z,236.2
2024-03-12T17:06:58.499Z,202
2024-03-12T17:09:45.766Z,166
2024-03-12T17:12:19.842Z,140.2
2024-03-12T17:14:40.663Z,111.44
2024-03-12T17:16:48.252Z,96.6
2024-03-12T17:18:42.355Z,85.44
2024-03-12T17:21:22.349Z,70
2024-03-12T17:23:48.949Z,58.14
2024-03-12T17:26:02.127Z,47.12
2024-03-12T17:28:02.244Z,38.97
2024-03-12T17:30:48.073Z,28.54
2024-03-12T17:33:20.519Z,19.9
2024-03-12T17:35:39.712Z,14.18
2024-03-12T17:37:45.515Z,9.48
2024-03-12T17:39:38.019Z,6.68
2024-03-12T17:42:16.293Z,3.93
2024-03-12T17:44:41.242Z,1.98
2024-03-12T17:46:53.054Z,1.4
2024-03-12T17:48:51.288Z,0.97
2024-03-12T17:51:35.419Z,0.61
2024-03-12T17:54:06.118Z,0.43
2024-03-12T17:56:22.864Z,0.26
2024-03-12T17:58:27.160Z,0.2
2024-03-12T18:00:17.867Z,0.24
2024-03-12T18:02:54.397Z,0.19
2024-03-12T18:05:17.711Z,0.26
2024-03-12T18:07:27.751Z,0.2
2024-03-12T18:09:24.294Z,0.19
2024-03-12T18:21:42.786Z,0.18
2024-03-12T18:24:17.799Z,0.25
2024-03-12T18:28:47.722Z,0.17
2024-03-12T18:30:42.727Z,0.16
2024-03-12T18:33:23.448Z,0.23
2024-03-12T18:35:52.600Z,0.08
2024-03-12T18:40:05.922Z,0.07
2024-03-12T18:47:45.310Z,0.09
2024-03-12T18:49:51.881Z,0.1
2024-03-12T18:51:45.289Z,0.09
2024-03-12T18:56:50.175Z,0.1
2024-03-12T19:06:21.908Z,0.11
2024-03-12T19:10:41.929Z,0.18
2024-03-12T19:12:33.772Z,0.19
2024-03-12T19:15:11.245Z,0.1
2024-03-12T19:24:27.054Z,0.11
2024-03-12T19:34:05.165Z,0.1
2024-03-12T19:43:08.477Z,0.09
2024-03-12T19:45:50.106Z,0.08
2024-03-12T19:50:34.107Z,0.09
2024-03-12T19:52:34.886Z,0.1
2024-03-12T19:55:22.336Z,0.08
2024-03-12T19:57:56.691Z,0.09
2024-03-12T20:00:17.209Z,0.08
2024-03-12T20:18:57.528Z,0.09
2024-03-12T20:21:16.568Z,0.08
2024-03-12T20:32:29.547Z,0.15
2024-03-12T20:34:27.853Z,0.09
2024-03-12T20:37:12.141Z,0.17
2024-03-12T20:39:43.042Z,0.11
2024-03-12T20:42:00.572Z,0.08
2024-03-12T21:00:14.093Z,0.07
2024-03-12T21:02:29.966Z,0.08
2024-03-12T21:16:20.003Z,0.09
2024-03-12T21:19:00.736Z,0.08
2024-03-12T21:33:23.061Z,0.07
2024-03-12T21:37:23.318Z,0.08
2024-03-12T21:40:02.362Z,0.14
2024-03-12T21:42:28.116Z,0.08
2024-03-12T21:44:40.560Z,0.09
2024-03-12T21:46:39.799Z,0.08
2024-03-12T21:49:24.863Z,0.07
2024-03-12T21:56:19.881Z,0.09
2024-03-12T21:58:11.493Z,0.08
2024-03-12T22:07:21.214Z,0.07
2024-03-12T22:24:42.276Z,0.08
2024-03-12T22:31:29.047Z,0.07
2024-03-12T22:33:57.400Z,0.08
2024-03-12T22:36:12.354Z,0.09
2024-03-12T22:38:14.153Z,0.08
2024-03-12T22:45:56.593Z,0.09
2024-03-12T22:48:04.219Z,0.08
2024-03-12T22:49:57.709Z,0.07
2024-03-12T23:02:03.720Z,0.06
2024-03-12T23:04:35.769Z,0.07
2024-03-12T23:06:55.117Z,0.06
2024-03-12T23:13:31.330Z,0.05
2024-03-12T23:15:56.242Z,0.04
2024-03-12T23:20:06.194Z,0.03
2024-03-12T23:22:50.335Z,0.04
2024-03-12T23:25:21.192Z,0.05
2024-03-12T23:27:38.649Z,0.04
2024-03-12T23:34:10.495Z,0.05
2024-03-12T23:38:42.914Z,0.04
2024-03-12T23:52:57.437Z,0.05
